Time;durP1;ratioP1;P1;durP2;ratioP2;P2;SDS_P1;SDS_P2;PMS_P1;PMS_P2;Temp;Humidity;BMP_temperature;BMP_pressure;BME280_temperature;BME280_humidity;BME280_pressure;Samples;Min_cycle;Max_cycle;Signal;HPM_P1;HPM_P2
2024/02/27 00:01:36;;;;;;;;;;;;;;;;;;5088046;28;19924;-62
2024/02/27 00:04:01;;;;;;;;;;;;;;;;;;5083818;28;19916;-60
2024/02/27 00:06:26;;;;;;;;;;;;;;;;;;5087614;28;20277;-62
2024/02/27 00:08:51;;;;;;;;;;;;;;;;;;5088015;28;19924;-63
2024/02/27 00:11:17;;;;;;;;;;;;;;;;;;5083903;28;20369;-62
2024/02/27 00:13:42;;;;;;;;;;;;;;;;;;5090477;28;20380;-64
2024/02/27 00:16:07;;;;;;;;;;;;;;;;;;5085797;28;20396;-61
2024/02/27 00:18:32;;;;;;;;;;;;;;;;;;5081072;28;20423;-62
2024/02/27 00:20:57;;;;;;;;;;;;;;;;;;5081346;28;20281;-60
2024/02/27 00:23:22;;;;;;;;;;;;;;;;;;5081188;28;19916;-61
2024/02/27 00:25:47;;;;;;;;;;;;;;;;;;5084785;28;20373;-62
2024/02/27 00:28:12;;;;;;;;;;;;;;;;;;5079049;28;19923;-62
2024/02/27 00:30:38;;;;;;;;;;;;;;;;;;5080260;28;19912;-62
2024/02/27 00:33:03;;;;;;;;;;;;;;;;;;5084692;28;19958;-62
2024/02/27 00:35:28;;;;;;;;;;;;;;;;;;5085506;28;19923;-62
2024/02/27 00:37:53;;;;;;;;;;;;;;;;;;5078231;28;19916;-60
2024/02/27 00:40:18;;;;;;;;;;;;;;;;;;5079252;28;19920;-62
2024/02/27 00:42:43;;;;;;;;;;;;;;;;;;5084378;28;20349;-64
2024/02/27 00:45:08;;;;;;;;;;;;;;;;;;5079531;28;19916;-62
2024/02/27 00:47:34;;;;;;;;;;;;;;;;;;5085910;28;19912;-61
2024/02/27 00:49:59;;;;;;;;;;;;;;;;;;5079403;28;19925;-62
2024/02/27 00:52:24;;;;;;;;;;;;;;;;;;5086502;28;19919;-62
2024/02/27 00:54:49;;;;;;;;;;;;;;;;;;5085159;28;20010;-62
2024/02/27 00:57:14;;;;;;;;;;;;;;;;;;5084564;28;20412;-62
2024/02/27 00:59:39;;;;;;;;;;;;;;;;;;5080460;28;19916;-62
2024/02/27 01:02:05;;;;;;;;;;;;;;;;;;5081191;28;19912;-62
2024/02/27 01:04:30;;;;;;;;;;;;;;;;;;5083328;28;19948;-62
2024/02/27 01:06:55;;;;;;;;;;;;;;;;;;5084239;28;19916;-62
2024/02/27 01:09:20;;;;;;;;;;;;;;;;;;5089835;28;20006;-62
2024/02/27 01:11:45;;;;;;;;;;;;;;;;;;5082782;28;19952;-62
2024/02/27 01:14:10;;;;;;;;;;;;;;;;;;5083415;28;19916;-62
2024/02/27 01:16:35;;;;;;;;;;;;;;;;;;5081024;28;19927;-62
2024/02/27 01:19:00;;;;;;;;;;;;;;;;;;5089475;28;20014;-62
2024/02/27 01:21:26;;;;;;;;;;;;;;;;;;5086416;28;20001;-62
2024/02/27 01:23:51;;;;;;;;;;;;;;;;;;5096582;28;19912;-59
2024/02/27 01:26:16;;;;;;;;;;;;;;;;;;5089902;28;19959;-62
2024/02/27 01:28:41;;;;;;;;;;;;;;;;;;5086073;28;19912;-62
2024/02/27 01:31:06;;;;;;;;;;;;;;;;;;5085612;28;20319;-62
2024/02/27 01:33:31;;;;;;;;;;;;;;;;;;5089441;28;19958;-62
2024/02/27 01:35:56;;;;;;;;;;;;;;;;;;5082850;28;19912;-62
2024/02/27 01:38:22;;;;;;;;;;;;;;;;;;5086432;28;19962;-62
2024/02/27 01:40:47;;;;;;;;;;;;;;;;;;5086633;28;19969;-62
2024/02/27 01:43:12;;;;;;;;;;;;;;;;;;5081789;28;19969;-62
2024/02/27 01:45:37;;;;;;;;;;;;;;;;;;5091235;28;19915;-62
2024/02/27 01:48:03;;;;;;;;;;;;;;;;;;5081402;28;19934;-62
2024/02/27 01:50:28;;;;;;;;;;;;;;;;;;5083300;28;19949;-62
2024/02/27 01:52:53;;;;;;;;;;;;;;;;;;5086242;28;19913;-60
2024/02/27 01:55:18;;;;;;;;;;;;;;;;;;5085615;28;20211;-62
2024/02/27 01:57:43;;;;;;;;;;;;;;;;;;5085904;28;19913;-62
2024/02/27 02:00:14;;;;;;;;;;;;;;;;;;5089882;28;20368;-62
2024/02/27 02:02:43;;;;;;;;;;;;;;;;;;5084180;28;19912;-62
2024/02/27 02:05:08;;;;;;;;;;;;;;;;;;5087630;28;19927;-60
2024/02/27 02:07:34;;;;;;;;;;;;;;;;;;5088426;28;19914;-62
2024/02/27 02:10:00;;;;;;;;;;;;;;;;;;5083846;28;19923;-62
2024/02/27 02:12:25;;;;;;;;;;;;;;;;;;5083044;28;19912;-62
2024/02/27 02:14:51;;;;;;;;;;;;;;;;;;5086760;28;19912;-62
2024/02/27 02:17:17;;;;;;;;;;;;;;;;;;5081523;28;19912;-62
2024/02/27 02:19:42;;;;;;;;;;;;;;;;;;5084681;28;19913;-62
2024/02/27 02:22:07;;;;;;;;;;;;;;;;;;5084684;28;19917;-62
2024/02/27 02:24:32;;;;;;;;;;;;;;;;;;5084299;28;19934;-61
2024/02/27 02:26:57;;;;;;;;;;;;;;;;;;5086321;28;19923;-62
2024/02/27 02:29:22;;;;;;;;;;;;;;;;;;5087878;28;19920;-62
2024/02/27 02:31:47;;;;;;;;;;;;;;;;;;5086143;28;19995;-62
2024/02/27 02:34:12;;;;;;;;;;;;;;;;;;5080533;28;19912;-61
2024/02/27 02:36:38;;;;;;;;;;;;;;;;;;5091308;28;19912;-62
2024/02/27 02:39:03;;;;;;;;;;;;;;;;;;5084892;28;20373;-62
2024/02/27 02:41:29;;;;;;;;;;;;;;;;;;5082175;28;19966;-61
2024/02/27 02:43:54;;;;;;;;;;;;;;;;;;5083171;28;19912;-64
2024/02/27 02:46:19;;;;;;;;;;;;;;;;;;5083509;28;19912;-62
2024/02/27 02:48:44;;;;;;;;;;;;;;;;;;5082615;28;19908;-62
2024/02/27 02:51:10;;;;;;;;;;;;;;;;;;5081250;28;20284;-62
2024/02/27 02:53:35;;;;;;;;;;;;;;;;;;5087700;28;19920;-62
2024/02/27 02:56:00;;;;;;;;;;;;;;;;;;5084316;28;20365;-62
2024/02/27 02:58:25;;;;;;;;;;;;;;;;;;5080872;28;20299;-62
2024/02/27 03:00:50;;;;;;;;;;;;;;;;;;5089901;28;20442;-62
2024/02/27 03:03:15;;;;;;;;;;;;;;;;;;5080781;28;19912;-62
2024/02/27 03:05:40;;;;;;;;;;;;;;;;;;5086465;28;19912;-62
2024/02/27 03:08:06;;;;;;;;;;;;;;;;;;5088836;28;19916;-62
2024/02/27 03:10:31;;;;;;;;;;;;;;;;;;5081934;28;20304;-61
2024/02/27 03:12:56;;;;;;;;;;;;;;;;;;5083868;28;19912;-62
2024/02/27 03:15:21;;;;;;;;;;;;;;;;;;5085251;28;20011;-61
2024/02/27 03:17:46;;;;;;;;;;;;;;;;;;5081270;28;20002;-61
2024/02/27 03:20:12;;;;;;;;;;;;;;;;;;5085161;28;19916;-62
2024/02/27 03:22:37;;;;;;;;;;;;;;;;;;5085483;28;19976;-62
2024/02/27 03:25:04;;;;;;;;;;;;;;;;;;5078163;28;19920;-60
2024/02/27 03:27:30;;;;;;;;;;;;;;;;;;5080345;28;19912;-62
2024/02/27 03:29:55;;;;;;;;;;;;;;;;;;5082736;28;19920;-62
2024/02/27 03:32:21;;;;;;;;;;;;;;;;;;5082090;28;19919;-62
2024/02/27 03:34:46;;;;;;;;;;;;;;;;;;5079693;28;19997;-62
2024/02/27 03:37:11;;;;;;;;;;;;;;;;;;5086038;28;19963;-62
2024/02/27 03:39:36;;;;;;;;;;;;;;;;;;5081841;28;19925;-62
2024/02/27 03:42:02;;;;;;;;;;;;;;;;;;5084861;28;19925;-62
2024/02/27 03:44:27;;;;;;;;;;;;;;;;;;5084206;28;19912;-62
2024/02/27 03:46:52;;;;;;;;;;;;;;;;;;5078245;28;20494;-60
2024/02/27 03:49:17;;;;;;;;;;;;;;;;;;5082374;28;19942;-61
2024/02/27 03:51:42;;;;;;;;;;;;;;;;;;5082828;28;19919;-62
2024/02/27 03:54:07;;;;;;;;;;;;;;;;;;5082996;28;20396;-61
2024/02/27 03:56:32;;;;;;;;;;;;;;;;;;5084998;28;20794;-62
2024/02/27 03:58:58;;;;;;;;;;;;;;;;;;5082919;28;20269;-62
2024/02/27 04:01:23;;;;;;;;;;;;;;;;;;5076115;28;19955;-62
2024/02/27 04:03:48;;;;;;;;;;;;;;;;;;5082647;28;19912;-62
2024/02/27 04:06:13;;;;;;;;;;;;;;;;;;5083243;28;19916;-62
2024/02/27 04:08:38;;;;;;;;;;;;;;;;;;5080290;28;19916;-60
2024/02/27 04:11:04;;;;;;;;;;;;;;;;;;5086577;28;19951;-62
2024/02/27 04:13:29;;;;;;;;;;;;;;;;;;5083047;28;19912;-62
2024/02/27 04:15:54;;;;;;;;;;;;;;;;;;5080932;28;19913;-62
2024/02/27 04:18:19;;;;;;;;;;;;;;;;;;5082782;28;19912;-62
2024/02/27 04:20:44;;;;;;;;;;;;;;;;;;5086373;28;19920;-62
2024/02/27 04:23:09;;;;;;;;;;;;;;;;;;5085143;28;19916;-62
2024/02/27 04:25:34;;;;;;;;;;;;;;;;;;5081574;28;19916;-62
2024/02/27 04:27:59;;;;;;;;;;;;;;;;;;5083966;28;19923;-62
2024/02/27 04:30:24;;;;;;;;;;;;;;;;;;5079687;28;19958;-62
2024/02/27 04:32:50;;;;;;;;;;;;;;;;;;5084159;28;19960;-62
2024/02/27 04:35:15;;;;;;;;;;;;;;;;;;5082499;28;19912;-62
2024/02/27 04:37:40;;;;;;;;;;;;;;;;;;5080141;28;19923;-62
2024/02/27 04:40:05;;;;;;;;;;;;;;;;;;5082254;28;19928;-61
2024/02/27 04:42:30;;;;;;;;;;;;;;;;;;5078813;28;20018;-62
2024/02/27 04:44:55;;;;;;;;;;;;;;;;;;5086402;28;19944;-62
2024/02/27 04:47:20;;;;;;;;;;;;;;;;;;5081600;28;19920;-61
2024/02/27 04:49:46;;;;;;;;;;;;;;;;;;5085242;28;19916;-62
2024/02/27 04:52:11;;;;;;;;;;;;;;;;;;5079536;28;19916;-61
2024/02/27 04:54:36;;;;;;;;;;;;;;;;;;5081310;28;20593;-61
2024/02/27 04:57:02;;;;;;;;;;;;;;;;;;5086862;28;19912;-62
2024/02/27 04:59:27;;;;;;;;;;;;;;;;;;5082251;28;19954;-62
2024/02/27 05:01:52;;;;;;;;;;;;;;;;;;5083056;28;19935;-61
2024/02/27 05:04:17;;;;;;;;;;;;;;;;;;5081737;28;19920;-61
2024/02/27 05:06:42;;;;;;;;;;;;;;;;;;5082394;28;19921;-62
2024/02/27 05:09:07;;;;;;;;;;;;;;;;;;5081484;28;20487;-62
2024/02/27 05:11:32;;;;;;;;;;;;;;;;;;5083779;28;20380;-62
2024/02/27 05:13:57;;;;;;;;;;;;;;;;;;5079835;28;19916;-62
2024/02/27 05:16:23;;;;;;;;;;;;;;;;;;5083921;28;19915;-61
2024/02/27 05:18:48;;;;;;;;;;;;;;;;;;5083079;28;20102;-62
2024/02/27 05:21:13;;;;;;;;;;;;;;;;;;5090744;28;19916;-61
2024/02/27 05:23:38;;;;;;;;;;;;;;;;;;5076461;28;19918;-62
2024/02/27 05:26:03;;;;;;;;;;;;;;;;;;5086419;28;20580;-62
2024/02/27 05:28:29;;;;;;;;;;;;;;;;;;5083236;28;19915;-62
2024/02/27 05:30:54;;;;;;;;;;;;;;;;;;5079971;28;19943;-62
2024/02/27 05:33:19;;;;;;;;;;;;;;;;;;5078182;28;19920;-62
2024/02/27 05:35:44;;;;;;;;;;;;;;;;;;5086250;28;20003;-62
2024/02/27 05:38:09;;;;;;;;;;;;;;;;;;5084458;28;20459;-62
2024/02/27 05:40:35;;;;;;;;;;;;;;;;;;5081302;28;19952;-62
2024/02/27 05:43:00;;;;;;;;;;;;;;;;;;5085544;28;19920;-62
2024/02/27 05:45:25;;;;;;;;;;;;;;;;;;5081398;28;19993;-61
2024/02/27 05:47:50;;;;;;;;;;;;;;;;;;5081036;28;20545;-61
2024/02/27 05:50:16;;;;;;;;;;;;;;;;;;5079209;28;19920;-62
2024/02/27 05:52:41;;;;;;;;;;;;;;;;;;5081239;28;19913;-62
2024/02/27 05:55:06;;;;;;;;;;;;;;;;;;5086537;28;19958;-62
2024/02/27 05:57:31;;;;;;;;;;;;;;;;;;5080209;28;19966;-62
2024/02/27 05:59:56;;;;;;;;;;;;;;;;;;5085046;28;19919;-62
2024/02/27 06:02:21;;;;;;;;;;;;;;;;;;5079654;28;19916;-62
2024/02/27 06:04:47;;;;;;;;;;;;;;;;;;5081583;28;19912;-62
2024/02/27 06:07:12;;;;;;;;;;;;;;;;;;5087674;28;19991;-62
2024/02/27 06:09:37;;;;;;;;;;;;;;;;;;5088089;28;19912;-63
2024/02/27 06:12:02;;;;;;;;;;;;;;;;;;5087871;28;19912;-62
2024/02/27 06:14:27;;;;;;;;;;;;;;;;;;5081798;28;19920;-63
2024/02/27 06:16:52;;;;;;;;;;;;;;;;;;5089046;28;19916;-63
2024/02/27 06:19:18;;;;;;;;;;;;;;;;;;5082559;28;20388;-63
2024/02/27 06:24:27;;;;;;;;;;;;;;;;;;5082516;28;20355;-63
2024/02/27 06:26:52;;;;;;;;;;;;;;;;;;5089246;28;19916;-63
2024/02/27 06:29:17;;;;;;;;;;;;;;;;;;5084266;28;19913;-63
2024/02/27 06:31:42;;;;;;;;;;;;;;;;;;5081606;28;19920;-65
2024/02/27 06:34:07;;;;;;;;;;;;;;;;;;5087377;28;19920;-65
2024/02/27 06:36:32;;;;;;;;;;;;;;;;;;5086983;28;19955;-63
2024/02/27 06:38:58;;;;;;;;;;;;;;;;;;5089272;28;20296;-62
2024/02/27 06:41:23;;;;;;;;;;;;;;;;;;5082609;28;19920;-63
2024/02/27 06:43:49;;;;;;;;;;;;;;;;;;5084549;28;19955;-63
2024/02/27 06:46:14;;;;;;;;;;;;;;;;;;5086655;28;19912;-62
2024/02/27 06:48:40;;;;;;;;;;;;;;;;;;5086778;28;20269;-63
2024/02/27 06:51:06;;;;;;;;;;;;;;;;;;5086760;28;19918;-63
2024/02/27 06:53:31;;;;;;;;;;;;;;;;;;5089810;28;19953;-62
2024/02/27 06:55:56;;;;;;;;;;;;;;;;;;5081226;28;19913;-64
2024/02/27 06:58:21;;;;;;;;;;;;;;;;;;5086712;28;19955;-63
2024/02/27 07:00:46;;;;;;;;;;;;;;;;;;5086286;28;19916;-62
2024/02/27 07:03:12;;;;;;;;;;;;;;;;;;5086482;28;19935;-61
2024/02/27 07:05:37;;;;;;;;;;;;;;;;;;5085698;28;20302;-63
2024/02/27 07:08:02;;;;;;;;;;;;;;;;;;5085305;28;19918;-63
2024/02/27 07:10:27;;;;;;;;;;;;;;;;;;5086323;28;19916;-63
2024/02/27 07:12:52;;;;;;;;;;;;;;;;;;5083142;28;19995;-63
2024/02/27 07:15:18;;;;;;;;;;;;;;;;;;5086375;28;19912;-63
2024/02/27 07:17:43;;;;;;;;;;;;;;;;;;5079557;28;19919;-63
2024/02/27 07:20:09;;;;;;;;;;;;;;;;;;5082273;28;19923;-63
2024/02/27 07:22:34;;;;;;;;;;;;;;;;;;5085713;28;20343;-59
2024/02/27 07:24:59;;;;;;;;;;;;;;;;;;5079364;28;19920;-58
2024/02/27 07:27:24;;;;;;;;;;;;;;;;;;5086023;28;19947;-58
2024/02/27 07:29:49;;;;;;;;;;;;;;;;;;5082502;28;19969;-57
2024/02/27 07:32:16;;;;;;;;;;;;;;;;;;5085937;28;19920;-57
2024/02/27 07:34:42;;;;;;;;;;;;;;;;;;5086787;28;19912;-57
2024/02/27 07:37:08;;;;;;;;;;;;;;;;;;5080283;28;19934;-58
2024/02/27 07:39:33;;;;;;;;;;;;;;;;;;5084320;28;19920;-58
2024/02/27 07:41:58;;;;;;;;;;;;;;;;;;5085997;28;20007;-59
2024/02/27 07:44:23;;;;;;;;;;;;;;;;;;5084365;28;19916;-58
2024/02/27 07:46:48;;;;;;;;;;;;;;;;;;5084472;28;19912;-58
2024/02/27 07:49:14;;;;;;;;;;;;;;;;;;5084586;28;19920;-58
2024/02/27 07:51:39;;;;;;;;;;;;;;;;;;5084410;28;20287;-58
2024/02/27 07:54:04;;;;;;;;;;;;;;;;;;5080807;28;19943;-58
2024/02/27 07:56:31;;;;;;;;;;;;;;;;;;5086883;28;19922;-58
2024/02/27 07:58:58;;;;;;;;;;;;;;;;;;5084700;28;19920;-58
2024/02/27 08:01:25;;;;;;;;;;;;;;;;;;5084513;28;19916;-58
2024/02/27 08:03:50;;;;;;;;;;;;;;;;;;5087224;28;19928;-58
2024/02/27 08:06:15;;;;;;;;;;;;;;;;;;5083525;28;19912;-59
2024/02/27 08:08:40;;;;;;;;;;;;;;;;;;5084201;28;19915;-58
2024/02/27 08:11:06;;;;;;;;;;;;;;;;;;5084828;28;19919;-58
2024/02/27 08:13:31;;;;;;;;;;;;;;;;;;5088721;28;19916;-57
2024/02/27 08:15:56;;;;;;;;;;;;;;;;;;5088062;28;20381;-57
2024/02/27 08:18:21;;;;;;;;;;;;;;;;;;5084366;28;20660;-57
2024/02/27 08:20:47;;;;;;;;;;;;;;;;;;5085577;28;19919;-56
2024/02/27 08:23:13;;;;;;;;;;;;;;;;;;5087376;28;19912;-56
2024/02/27 08:25:38;;;;;;;;;;;;;;;;;;5092285;28;19915;-56
2024/02/27 08:28:03;;;;;;;;;;;;;;;;;;5086252;28;19985;-56
2024/02/27 08:30:29;;;;;;;;;;;;;;;;;;5084866;28;19943;-55
2024/02/27 08:32:54;;;;;;;;;;;;;;;;;;5082134;28;20018;-56
2024/02/27 08:35:20;;;;;;;;;;;;;;;;;;5084871;28;19923;-56
2024/02/27 08:37:45;;;;;;;;;;;;;;;;;;5084731;28;19912;-56
2024/02/27 08:40:10;;;;;;;;;;;;;;;;;;5088644;28;19926;-56
2024/02/27 08:42:36;;;;;;;;;;;;;;;;;;5085997;28;20360;-56
2024/02/27 08:45:01;;;;;;;;;;;;;;;;;;5083577;28;19920;-56
2024/02/27 08:47:27;;;;;;;;;;;;;;;;;;5087337;28;20286;-56
2024/02/27 08:49:52;;;;;;;;;;;;;;;;;;5082108;28;19912;-56
2024/02/27 08:52:17;;;;;;;;;;;;;;;;;;5087595;28;19954;-56
2024/02/27 08:54:42;;;;;;;;;;;;;;;;;;5084088;28;19912;-56
2024/02/27 08:57:07;;;;;;;;;;;;;;;;;;5085542;28;19919;-56
2024/02/27 08:59:32;;;;;;;;;;;;;;;;;;5084623;28;20329;-57
2024/02/27 09:01:57;;;;;;;;;;;;;;;;;;5084564;28;20373;-57
2024/02/27 09:04:22;;;;;;;;;;;;;;;;;;5084020;28;20408;-57
2024/02/27 09:06:48;;;;;;;;;;;;;;;;;;5087393;28;20364;-57
2024/02/27 09:09:13;;;;;;;;;;;;;;;;;;5084519;28;20391;-57
2024/02/27 09:11:38;;;;;;;;;;;;;;;;;;5083895;28;20353;-56
2024/02/27 09:14:03;;;;;;;;;;;;;;;;;;5086157;28;20299;-56
2024/02/27 09:16:29;;;;;;;;;;;;;;;;;;5085208;28;19974;-57
2024/02/27 09:18:54;;;;;;;;;;;;;;;;;;5083406;28;19916;-57
2024/02/27 09:21:19;;;;;;;;;;;;;;;;;;5082775;28;19966;-57
2024/02/27 09:23:44;;;;;;;;;;;;;;;;;;5087007;28;20400;-56
2024/02/27 09:26:09;;;;;;;;;;;;;;;;;;5082308;28;19919;-57
2024/02/27 09:28:35;;;;;;;;;;;;;;;;;;5086696;28;20273;-57
2024/02/27 09:31:02;;;;;;;;;;;;;;;;;;5083148;28;19928;-56
2024/02/27 09:33:27;;;;;;;;;;;;;;;;;;5089283;28;19916;-56
2024/02/27 09:35:53;;;;;;;;;;;;;;;;;;5085073;28;19920;-57
2024/02/27 09:38:18;;;;;;;;;;;;;;;;;;5082858;28;19919;-57
2024/02/27 09:40:43;;;;;;;;;;;;;;;;;;5088246;28;19924;-56
2024/02/27 09:43:08;;;;;;;;;;;;;;;;;;5088017;28;19913;-56
2024/02/27 09:45:33;;;;;;;;;;;;;;;;;;5086954;28;19912;-54
2024/02/27 09:47:59;;;;;;;;;;;;;;;;;;5086064;28;20360;-57
2024/02/27 09:50:24;;;;;;;;;;;;;;;;;;5092847;28;19961;-56
2024/02/27 09:52:50;;;;;;;;;;;;;;;;;;5086268;28;19919;-56
2024/02/27 09:55:15;;;;;;;;;;;;;;;;;;5091966;28;19908;-57
2024/02/27 09:57:40;;;;;;;;;;;;;;;;;;5089481;28;19913;-56
2024/02/27 10:00:05;;;;;;;;;;;;;;;;;;5091351;28;20006;-57
2024/02/27 10:02:30;;;;;;;;;;;;;;;;;;5087123;28;19921;-57
2024/02/27 10:04:55;;;;;;;;;;;;;;;;;;5086300;28;19912;-56
2024/02/27 10:07:20;;;;;;;;;;;;;;;;;;5090064;28;19947;-56
2024/02/27 10:09:46;;;;;;;;;;;;;;;;;;5087412;28;19920;-56
2024/02/27 10:12:11;;;;;;;;;;;;;;;;;;5089428;28;19912;-57
2024/02/27 10:14:37;;;;;;;;;;;;;;;;;;5090484;28;19912;-56
2024/02/27 10:17:05;;;;;;;;;;;;;;;;;;5084034;28;19961;-57
2024/02/27 10:19:30;;;;;;;;;;;;;;;;;;5089075;28;19917;-56
2024/02/27 10:21:56;;;;;;;;;;;;;;;;;;5088889;28;20296;-57
2024/02/27 10:24:21;;;;;;;;;;;;;;;;;;5091634;28;19948;-57
2024/02/27 10:26:46;;;;;;;;;;;;;;;;;;5092542;28;19915;-56
2024/02/27 10:29:11;;;;;;;;;;;;;;;;;;5080216;28;19920;-58
2024/02/27 10:31:38;;;;;;;;;;;;;;;;;;5085038;28;19916;-57
2024/02/27 10:34:03;;;;;;;;;;;;;;;;;;5086369;28;19939;-58
2024/02/27 10:36:28;;;;;;;;;;;;;;;;;;5091120;28;20008;-57
2024/02/27 10:38:53;;;;;;;;;;;;;;;;;;5090385;28;19927;-56
2024/02/27 10:41:19;;;;;;;;;;;;;;;;;;5088890;28;19965;-57
2024/02/27 10:43:45;;;;;;;;;;;;;;;;;;5085640;28;19970;-57
2024/02/27 10:46:10;;;;;;;;;;;;;;;;;;5087688;28;19912;-56
2024/02/27 10:48:35;;;;;;;;;;;;;;;;;;5084331;28;20011;-57
2024/02/27 10:51:00;;;;;;;;;;;;;;;;;;5090223;28;19915;-57
2024/02/27 10:53:25;;;;;;;;;;;;;;;;;;5085632;28;19916;-58
2024/02/27 10:55:50;;;;;;;;;;;;;;;;;;5089431;28;20557;-56
2024/02/27 10:58:15;;;;;;;;;;;;;;;;;;5084878;28;19957;-57
2024/02/27 11:00:41;;;;;;;;;;;;;;;;;;5088504;28;19970;-57
2024/02/27 11:03:06;;;;;;;;;;;;;;;;;;5088174;28;19927;-56
2024/02/27 11:05:31;;;;;;;;;;;;;;;;;;5089139;28;19927;-58
2024/02/27 11:07:56;;;;;;;;;;;;;;;;;;5090322;28;19916;-56
2024/02/27 11:10:22;;;;;;;;;;;;;;;;;;5088421;28;19908;-57
2024/02/27 11:12:47;;;;;;;;;;;;;;;;;;5085822;28;20369;-56
2024/02/27 11:15:12;;;;;;;;;;;;;;;;;;5084559;28;19912;-57
2024/02/27 11:17:37;;;;;;;;;;;;;;;;;;5081521;28;20435;-58
2024/02/27 11:20:03;;;;;;;;;;;;;;;;;;5087193;28;20007;-57
2024/02/27 11:22:28;;;;;;;;;;;;;;;;;;5083548;28;20381;-57
2024/02/27 11:24:53;;;;;;;;;;;;;;;;;;5083715;28;19912;-58
2024/02/27 11:27:18;;;;;;;;;;;;;;;;;;5087282;28;19944;-57
2024/02/27 11:29:43;;;;;;;;;;;;;;;;;;5086714;28;19940;-57
2024/02/27 11:32:08;;;;;;;;;;;;;;;;;;5092463;28;20297;-57
2024/02/27 11:34:34;;;;;;;;;;;;;;;;;;5086935;28;19911;-57
2024/02/27 11:36:59;;;;;;;;;;;;;;;;;;5089926;28;19916;-57
2024/02/27 11:39:24;;;;;;;;;;;;;;;;;;5086583;28;19920;-57
2024/02/27 11:41:49;;;;;;;;;;;;;;;;;;5091103;28;20003;-57
2024/02/27 11:44:14;;;;;;;;;;;;;;;;;;5083842;28;19915;-57
2024/02/27 11:46:41;;;;;;;;;;;;;;;;;;5084428;28;19962;-57
2024/02/27 11:49:06;;;;;;;;;;;;;;;;;;5086311;28;19995;-57
2024/02/27 11:51:32;;;;;;;;;;;;;;;;;;5088637;28;20011;-57
2024/02/27 11:53:57;;;;;;;;;;;;;;;;;;5089975;28;20270;-56
2024/02/27 11:56:22;;;;;;;;;;;;;;;;;;5083663;28;19943;-57
2024/02/27 11:58:48;;;;;;;;;;;;;;;;;;5090008;28;19917;-57
2024/02/27 12:01:15;;;;;;;;;;;;;;;;;;5084133;28;19990;-56
2024/02/27 12:03:42;;;;;;;;;;;;;;;;;;5087653;28;20312;-62
2024/02/27 12:06:08;;;;;;;;;;;;;;;;;;5084495;28;19927;-62
2024/02/27 12:08:33;;;;;;;;;;;;;;;;;;5088435;28;19916;-62
2024/02/27 12:10:58;;;;;;;;;;;;;;;;;;5089012;28;19965;-62
2024/02/27 12:13:23;;;;;;;;;;;;;;;;;;5082990;28;19943;-62
2024/02/27 12:15:49;;;;;;;;;;;;;;;;;;5086354;28;19916;-64
2024/02/27 12:18:14;;;;;;;;;;;;;;;;;;5079667;28;19916;-62
2024/02/27 12:20:39;;;;;;;;;;;;;;;;;;5082843;28;20361;-62
2024/02/27 12:23:04;;;;;;;;;;;;;;;;;;5083196;28;19959;-61
2024/02/27 12:25:29;;;;;;;;;;;;;;;;;;5084052;28;19991;-61
2024/02/27 12:27:55;;;;;;;;;;;;;;;;;;5083263;28;19912;-62
2024/02/27 12:30:22;;;;;;;;;;;;;;;;;;5082007;28;19994;-62
2024/02/27 12:32:47;;;;;;;;;;;;;;;;;;5080211;28;19912;-62
2024/02/27 12:35:12;;;;;;;;;;;;;;;;;;5083741;28;19919;-62
2024/02/27 12:37:38;;;;;;;;;;;;;;;;;;5088017;28;19909;-61
2024/02/27 12:40:03;;;;;;;;;;;;;;;;;;5083168;28;19978;-62
2024/02/27 12:42:28;;;;;;;;;;;;;;;;;;5081762;28;19969;-62
2024/02/27 12:44:53;;;;;;;;;;;;;;;;;;5084157;28;19923;-62
2024/02/27 12:47:18;;;;;;;;;;;;;;;;;;5086036;28;19947;-62
2024/02/27 12:49:43;;;;;;;;;;;;;;;;;;5080556;28;19913;-62
2024/02/27 12:52:09;;;;;;;;;;;;;;;;;;5084502;28;20023;-62
2024/02/27 12:54:34;;;;;;;;;;;;;;;;;;5082390;28;20423;-62
2024/02/27 12:56:59;;;;;;;;;;;;;;;;;;5085348;28;20288;-63
2024/02/27 12:59:24;;;;;;;;;;;;;;;;;;5082798;28;19935;-62
2024/02/27 13:01:49;;;;;;;;;;;;;;;;;;5085250;28;20516;-63
2024/02/27 13:04:14;;;;;;;;;;;;;;;;;;5086098;28;19935;-63
2024/02/27 13:06:40;;;;;;;;;;;;;;;;;;5086206;28;20364;-63
2024/02/27 13:09:05;;;;;;;;;;;;;;;;;;5082934;28;19988;-62
2024/02/27 13:11:30;;;;;;;;;;;;;;;;;;5078340;28;20532;-63
2024/02/27 13:13:55;;;;;;;;;;;;;;;;;;5089798;28;19934;-63
2024/02/27 13:16:20;;;;;;;;;;;;;;;;;;5088777;28;20117;-63
2024/02/27 13:18:45;;;;;;;;;;;;;;;;;;5085879;28;19912;-64
2024/02/27 13:21:11;;;;;;;;;;;;;;;;;;5084149;28;20033;-63
2024/02/27 13:23:36;;;;;;;;;;;;;;;;;;5089307;28;19912;-63
2024/02/27 13:26:01;;;;;;;;;;;;;;;;;;5084808;28;20347;-62
2024/02/27 13:28:27;;;;;;;;;;;;;;;;;;5087442;28;20441;-63
2024/02/27 13:30:52;;;;;;;;;;;;;;;;;;5086963;28;19951;-62
2024/02/27 13:33:17;;;;;;;;;;;;;;;;;;5085331;28;19920;-63
2024/02/27 13:35:42;;;;;;;;;;;;;;;;;;5090500;28;19947;-63
2024/02/27 13:38:07;;;;;;;;;;;;;;;;;;5084204;28;20253;-63
2024/02/27 13:40:32;;;;;;;;;;;;;;;;;;5089417;28;20400;-63
2024/02/27 13:42:58;;;;;;;;;;;;;;;;;;5088866;28;19932;-63
2024/02/27 13:45:23;;;;;;;;;;;;;;;;;;5087234;28;20322;-63
2024/02/27 13:47:48;;;;;;;;;;;;;;;;;;5083622;28;19955;-63
2024/02/27 13:50:13;;;;;;;;;;;;;;;;;;5086102;28;19916;-63
2024/02/27 13:52:39;;;;;;;;;;;;;;;;;;5088813;28;20327;-63
2024/02/27 13:55:05;;;;;;;;;;;;;;;;;;5085450;28;19961;-63
2024/02/27 13:57:30;;;;;;;;;;;;;;;;;;5088374;28;20307;-63
2024/02/27 13:59:56;;;;;;;;;;;;;;;;;;5084829;28;19912;-62
2024/02/27 14:02:21;;;;;;;;;;;;;;;;;;5090652;28;20065;-62
2024/02/27 14:04:46;;;;;;;;;;;;;;;;;;5090835;28;19916;-63
2024/02/27 14:07:11;;;;;;;;;;;;;;;;;;5093304;28;19916;-61
2024/02/27 14:09:36;;;;;;;;;;;;;;;;;;5080378;28;19915;-62
2024/02/27 14:12:04;;;;;;;;;;;;;;;;;;5085459;28;19920;-62
2024/02/27 14:14:29;;;;;;;;;;;;;;;;;;5083010;28;20412;-62
2024/02/27 14:16:54;;;;;;;;;;;;;;;;;;5082468;28;19959;-62
2024/02/27 14:19:20;;;;;;;;;;;;;;;;;;5084617;28;19924;-62
2024/02/27 14:21:45;;;;;;;;;;;;;;;;;;5089476;28;19943;-62
2024/02/27 14:24:10;;;;;;;;;;;;;;;;;;5081431;28;20418;-57
2024/02/27 14:26:35;;;;;;;;;;;;;;;;;;5084559;28;19937;-57
2024/02/27 14:29:00;;;;;;;;;;;;;;;;;;5088909;28;19916;-57
2024/02/27 14:31:27;;;;;;;;;;;;;;;;;;5077580;28;20293;-57
2024/02/27 14:33:52;;;;;;;;;;;;;;;;;;5085500;28;19912;-58
2024/02/27 14:36:17;;;;;;;;;;;;;;;;;;5092809;28;19916;-57
2024/02/27 14:38:42;;;;;;;;;;;;;;;;;;5084801;28;19918;-58
2024/02/27 14:41:08;;;;;;;;;;;;;;;;;;5087128;28;20045;-57
2024/02/27 14:43:33;;;;;;;;;;;;;;;;;;5089317;28;20482;-56
2024/02/27 14:45:58;;;;;;;;;;;;;;;;;;5080079;28;20384;-56
2024/02/27 14:48:24;;;;;;;;;;;;;;;;;;5080911;28;20277;-57
2024/02/27 14:50:50;;;;;;;;;;;;;;;;;;5088954;28;20392;-56
2024/02/27 14:53:15;;;;;;;;;;;;;;;;;;5081914;28;19956;-57
2024/02/27 14:55:40;;;;;;;;;;;;;;;;;;5082768;28;19916;-56
2024/02/27 14:58:05;;;;;;;;;;;;;;;;;;5086487;28;20426;-57
2024/02/27 15:00:30;;;;;;;;;;;;;;;;;;5082335;28;19916;-57
2024/02/27 15:02:56;;;;;;;;;;;;;;;;;;5081852;28;19930;-57
2024/02/27 15:05:21;;;;;;;;;;;;;;;;;;5085477;28;19918;-58
2024/02/27 15:07:46;;;;;;;;;;;;;;;;;;5081651;28;19931;-57
2024/02/27 15:10:11;;;;;;;;;;;;;;;;;;5081223;28;19952;-57
2024/02/27 15:12:36;;;;;;;;;;;;;;;;;;5087106;28;19963;-57
2024/02/27 15:15:02;;;;;;;;;;;;;;;;;;5084001;28;19920;-57
2024/02/27 15:17:27;;;;;;;;;;;;;;;;;;5082211;28;19916;-57
2024/02/27 15:19:53;;;;;;;;;;;;;;;;;;5082680;28;19920;-57
2024/02/27 15:22:18;;;;;;;;;;;;;;;;;;5080043;28;19998;-57
2024/02/27 15:24:43;;;;;;;;;;;;;;;;;;5080167;28;20003;-57
2024/02/27 15:27:08;;;;;;;;;;;;;;;;;;5086607;28;19959;-57
2024/02/27 15:29:33;;;;;;;;;;;;;;;;;;5081921;28;19920;-56
2024/02/27 15:31:58;;;;;;;;;;;;;;;;;;5084240;28;19920;-56
2024/02/27 15:34:26;;;;;;;;;;;;;;;;;;5088500;28;19912;-61
2024/02/27 15:36:51;;;;;;;;;;;;;;;;;;5078267;28;20420;-62
2024/02/27 15:39:16;;;;;;;;;;;;;;;;;;5082740;28;19920;-62
2024/02/27 15:41:41;;;;;;;;;;;;;;;;;;5083304;28;20458;-61
2024/02/27 15:44:07;;;;;;;;;;;;;;;;;;5080520;28;19959;-62
2024/02/27 15:46:34;;;;;;;;;;;;;;;;;;5086399;28;19920;-62
2024/02/27 15:48:59;;;;;;;;;;;;;;;;;;5084750;28;20389;-62
2024/02/27 15:51:24;;;;;;;;;;;;;;;;;;5090816;28;20396;-61
2024/02/27 15:53:50;;;;;;;;;;;;;;;;;;5082848;28;20297;-63
2024/02/27 15:56:15;;;;;;;;;;;;;;;;;;5088781;28;20002;-61
2024/02/27 15:58:41;;;;;;;;;;;;;;;;;;5075783;28;20003;-62
2024/02/27 16:01:06;;;;;;;;;;;;;;;;;;5084656;28;20297;-62
2024/02/27 16:03:31;;;;;;;;;;;;;;;;;;5087527;28;19916;-62
2024/02/27 16:05:57;;;;;;;;;;;;;;;;;;5087318;28;20261;-61
2024/02/27 16:08:22;;;;;;;;;;;;;;;;;;5084461;28;19920;-60
2024/02/27 16:10:47;;;;;;;;;;;;;;;;;;5085168;28;19927;-62
2024/02/27 16:13:12;;;;;;;;;;;;;;;;;;5079289;28;19912;-61
2024/02/27 16:15:37;;;;;;;;;;;;;;;;;;5083362;28;19912;-61
2024/02/27 16:18:03;;;;;;;;;;;;;;;;;;5081208;28;19916;-61
2024/02/27 16:20:28;;;;;;;;;;;;;;;;;;5080564;28;19969;-61
2024/02/27 16:22:53;;;;;;;;;;;;;;;;;;5076560;28;19920;-61
2024/02/27 16:25:19;;;;;;;;;;;;;;;;;;5081706;28;20002;-62
2024/02/27 16:27:44;;;;;;;;;;;;;;;;;;5084131;28;19920;-62
2024/02/27 16:30:10;;;;;;;;;;;;;;;;;;5084245;28;19981;-62
2024/02/27 16:32:36;;;;;;;;;;;;;;;;;;5081705;28;19920;-61
2024/02/27 16:35:01;;;;;;;;;;;;;;;;;;5084952;28;23504;-62